createdAt,value
2022-12-01T00:00:31.231Z,36.70
2022-12-01T00:01:31.401Z,31.80
2022-12-01T00:02:31.770Z,31.70
2022-12-01T00:03:31.939Z,33.40
2022-12-01T00:04:32.249Z,33.80
2022-12-01T00:05:32.561Z,35.80
2022-12-01T00:06:32.879Z,33.70
2022-12-01T00:07:33.092Z,35.70
2022-12-01T00:08:33.326Z,35.00
2022-12-01T00:09:33.654Z,33.10
2022-12-01T00:10:33.983Z,34.00
2022-12-01T00:11:34.300Z,32.00
2022-12-01T00:12:34.540Z,33.30
2022-12-01T00:13:34.861Z,31.30
2022-12-01T00:14:35.118Z,33.60
2022-12-01T00:15:35.437Z,32.80
2022-12-01T00:16:35.903Z,31.10
2022-12-01T00:17:36.096Z,32.70
2022-12-01T00:18:37.259Z,34.40
2022-12-01T00:19:36.743Z,33.10
2022-12-01T00:20:37.049Z,31.50
2022-12-01T00:21:37.433Z,32.90
2022-12-01T00:22:37.739Z,33.70
2022-12-01T00:23:38.074Z,31.70
2022-12-01T00:24:38.386Z,32.60
2022-12-01T00:25:38.630Z,33.00
2022-12-01T00:26:38.938Z,33.10
2022-12-01T00:27:39.314Z,30.80
2022-12-01T00:28:39.495Z,32.80
2022-12-01T00:29:39.860Z,32.90
2022-12-01T00:30:41.026Z,30.70
2022-12-01T00:31:40.487Z,30.90
2022-12-01T00:32:40.752Z,32.50
2022-12-01T00:33:40.963Z,31.90
2022-12-01T00:34:41.260Z,31.40
2022-12-01T00:35:41.658Z,33.30
2022-12-01T00:36:41.943Z,34.50
2022-12-01T00:37:42.368Z,36.60
2022-12-01T00:38:42.563Z,32.70
2022-12-01T00:39:42.873Z,33.20
2022-12-01T00:40:43.166Z,33.80
2022-12-01T00:41:43.529Z,31.10
2022-12-01T00:42:43.918Z,34.20
2022-12-01T00:43:44.177Z,33.70
2022-12-01T00:44:44.490Z,32.70
2022-12-01T00:45:44.816Z,33.20
2022-12-01T00:46:45.180Z,33.40
2022-12-01T00:47:45.436Z,33.10
2022-12-01T00:48:45.636Z,31.80
2022-12-01T00:49:46.104Z,33.10
2022-12-01T00:50:46.192Z,30.90
2022-12-01T00:51:46.551Z,32.70
2022-12-01T00:52:46.864Z,31.30
2022-12-01T00:53:47.171Z,31.00
2022-12-01T00:54:47.530Z,31.40
2022-12-01T00:55:47.834Z,32.60
2022-12-01T00:56:48.123Z,32.20
2022-12-01T00:57:48.496Z,34.00
2022-12-01T00:58:48.730Z,31.00
2022-12-01T00:59:49.337Z,31.00
2022-12-01T01:00:49.402Z,32.20
2022-12-01T01:01:49.775Z,31.20
2022-12-01T01:02:50.049Z,31.60
2022-12-01T01:03:50.308Z,31.80
2022-12-01T01:04:51.035Z,32.00
2022-12-01T01:05:50.913Z,32.10
2022-12-01T01:06:51.221Z,30.60
2022-12-01T01:07:51.632Z,32.70
2022-12-01T01:08:51.753Z,32.10
2022-12-01T01:09:52.094Z,32.40
2022-12-01T01:10:52.378Z,32.50
2022-12-01T01:11:52.774Z,30.70
2022-12-01T01:12:52.943Z,31.30
2022-12-01T01:13:53.359Z,32.20
2022-12-01T01:14:53.578Z,29.90
2022-12-01T01:15:53.902Z,32.70
2022-12-01T01:16:54.192Z,32.70
2022-12-01T01:17:54.336Z,32.10
2022-12-01T01:18:54.658Z,32.90
2022-12-01T01:19:55.016Z,32.00
2022-12-01T01:20:55.336Z,33.00
2022-12-01T01:21:55.719Z,32.60
2022-12-01T01:22:55.901Z,33.20
2022-12-01T01:23:56.252Z,32.20
2022-12-01T01:24:56.471Z,32.00
2022-12-01T01:25:56.800Z,32.80
2022-12-01T01:26:57.072Z,30.90
2022-12-01T01:27:57.430Z,33.50
2022-12-01T01:28:57.738Z,32.50
2022-12-01T01:29:58.054Z,32.20
2022-12-01T01:30:58.425Z,34.40
2022-12-01T01:31:58.671Z,32.60
2022-12-01T01:32:58.888Z,33.90
2022-12-01T01:33:59.133Z,30.70
2022-12-01T01:34:59.309Z,32.60
2022-12-01T01:35:59.689Z,32.30
2022-12-01T01:37:00.032Z,31.10
2022-12-01T01:38:00.425Z,33.40
2022-12-01T01:39:00.581Z,33.60
2022-12-01T01:40:00.918Z,33.20
2022-12-01T01:41:01.218Z,32.80
2022-12-01T01:42:01.543Z,30.90
2022-12-01T01:43:01.878Z,33.50
2022-12-01T01:44:02.223Z,31.30
2022-12-01T01:45:02.441Z,32.80
2022-12-01T01:46:02.812Z,29.90
2022-12-01T01:47:02.956Z,31.50
2022-12-01T01:48:03.381Z,35.10
2022-12-01T01:49:03.583Z,30.80
2022-12-01T01:50:03.826Z,30.20
2022-12-01T01:51:04.186Z,32.10
2022-12-01T01:52:04.505Z,31.00
2022-12-01T01:53:04.734Z,31.40
2022-12-01T01:54:05.101Z,32.40
2022-12-01T01:55:05.280Z,30.60
2022-12-01T01:56:05.622Z,29.60
2022-12-01T01:57:05.977Z,31.10
2022-12-01T01:58:06.254Z,30.10
2022-12-01T01:59:06.575Z,32.00
2022-12-01T02:00:06.783Z,29.80
2022-12-01T02:01:07.110Z,32.20
2022-12-01T02:02:07.472Z,32.40
2022-12-01T02:03:07.628Z,31.20
2022-12-01T02:04:08.002Z,29.70
2022-12-01T02:05:08.249Z,30.50
2022-12-01T02:06:08.461Z,30.30
2022-12-01T02:07:08.824Z,32.20
2022-12-01T02:08:09.211Z,34.00
2022-12-01T02:09:09.443Z,31.80
2022-12-01T02:10:09.770Z,33.20
2022-12-01T02:11:10.124Z,30.90
2022-12-01T02:12:10.311Z,32.80
2022-12-01T02:13:10.512Z,31.10
2022-12-01T02:14:10.864Z,30.60
2022-12-01T02:15:11.021Z,31.30
2022-12-01T02:16:11.474Z,30.40
2022-12-01T02:17:11.672Z,29.20
2022-12-01T02:18:12.000Z,31.70
2022-12-01T02:19:12.271Z,30.90
2022-12-01T02:20:12.626Z,31.50
2022-12-01T02:21:12.943Z,32.70
2022-12-01T02:22:13.270Z,33.70
2022-12-01T02:23:13.479Z,32.20
2022-12-01T02:24:13.905Z,32.00
2022-12-01T02:25:14.076Z,31.30
2022-12-01T02:26:14.440Z,33.10
2022-12-01T02:27:14.849Z,29.70
2022-12-01T02:28:15.089Z,31.20
2022-12-01T02:29:15.315Z,33.70
2022-12-01T02:30:15.535Z,32.70
2022-12-01T02:31:15.914Z,29.90
2022-12-01T02:32:16.108Z,32.00
2022-12-01T02:33:16.475Z,31.60
2022-12-01T02:34:16.699Z,31.50
2022-12-01T02:35:16.937Z,31.90
2022-12-01T02:36:17.180Z,31.20
2022-12-01T02:37:17.464Z,31.80
2022-12-01T02:38:17.840Z,30.60
2022-12-01T02:39:18.137Z,34.90
2022-12-01T02:40:18.473Z,32.40
2022-12-01T02:41:18.781Z,30.70
2022-12-01T02:42:19.106Z,33.40
2022-12-01T02:43:19.416Z,31.60
2022-12-01T02:44:19.769Z,34.00
2022-12-01T02:45:20.028Z,32.30
2022-12-01T02:46:20.373Z,32.50
2022-12-01T02:47:20.553Z,32.50
2022-12-01T02:48:20.911Z,33.30
2022-12-01T02:49:21.130Z,32.70
2022-12-01T02:50:21.446Z,30.80
2022-12-01T02:51:21.757Z,32.00
2022-12-01T02:52:22.168Z,30.70
2022-12-01T02:53:22.386Z,31.00
2022-12-01T02:54:22.708Z,29.90
2022-12-01T02:55:23.114Z,30.30
2022-12-01T02:56:23.337Z,30.70
2022-12-01T02:57:23.532Z,29.50
2022-12-01T02:58:23.899Z,30.40
2022-12-01T02:59:24.174Z,31.40
2022-12-01T03:00:24.377Z,30.40
2022-12-01T03:01:24.686Z,31.10
2022-12-01T03:02:25.045Z,31.80
2022-12-01T03:03:25.137Z,33.80
2022-12-01T03:04:25.449Z,31.30
2022-12-01T03:05:25.727Z,29.20
2022-12-01T03:06:25.996Z,29.80
2022-12-01T03:07:26.299Z,31.00
2022-12-01T03:08:26.551Z,30.00
2022-12-01T03:09:26.953Z,30.60
2022-12-01T03:10:27.228Z,29.50
2022-12-01T03:11:27.456Z,30.50
2022-12-01T03:12:27.783Z,31.90
2022-12-01T03:13:28.120Z,30.50
2022-12-01T03:14:28.393Z,32.10
2022-12-01T03:15:28.575Z,30.10
2022-12-01T03:16:28.971Z,31.70
2022-12-01T03:17:29.180Z,29.70
2022-12-01T03:18:29.507Z,30.50
2022-12-01T03:19:29.879Z,32.30
2022-12-01T03:20:30.181Z,31.00
2022-12-01T03:21:30.477Z,30.30
2022-12-01T03:22:30.726Z,34.30
2022-12-01T03:23:31.002Z,29.30
2022-12-01T03:24:31.248Z,31.80
2022-12-01T03:25:31.538Z,30.90
2022-12-01T03:26:31.793Z,31.10
2022-12-01T03:27:32.006Z,31.20
2022-12-01T03:28:32.389Z,30.60
2022-12-01T03:29:32.557Z,32.10
2022-12-01T03:30:32.949Z,32.20
2022-12-01T03:31:33.195Z,30.40
2022-12-01T03:32:33.419Z,31.20
2022-12-01T03:33:33.747Z,31.40
2022-12-01T03:34:34.043Z,31.20
2022-12-01T03:35:34.331Z,30.70
2022-12-01T03:36:34.697Z,32.30
2022-12-01T03:37:34.989Z,33.50
2022-12-01T03:38:35.401Z,31.70
2022-12-01T03:39:35.635Z,31.50
2022-12-01T03:40:36.026Z,31.00
2022-12-01T03:41:36.322Z,29.90
2022-12-01T03:42:36.705Z,33.10
2022-12-01T03:43:36.991Z,31.50
2022-12-01T03:44:37.341Z,32.30
2022-12-01T03:45:37.669Z,32.10
2022-12-01T03:46:38.084Z,31.20
2022-12-01T03:47:38.357Z,31.50
2022-12-01T03:48:38.670Z,31.30
2022-12-01T03:49:38.983Z,30.80
2022-12-01T03:50:39.355Z,30.30
2022-12-01T03:51:39.532Z,32.00
2022-12-01T03:52:39.870Z,29.00
2022-12-01T03:53:40.175Z,30.40
2022-12-01T03:54:40.533Z,26.80
2022-12-01T03:55:40.839Z,27.00
2022-12-01T03:56:41.164Z,25.90
2022-12-01T03:57:41.457Z,23.90
2022-12-01T03:58:41.796Z,24.10
2022-12-01T03:59:42.158Z,25.60
2022-12-01T04:00:42.486Z,25.40
2022-12-01T04:01:42.832Z,24.00
2022-12-01T04:02:43.542Z,23.90
2022-12-01T04:03:43.427Z,24.80
2022-12-01T04:04:43.766Z,25.80
2022-12-01T04:05:44.088Z,23.50
2022-12-01T04:06:44.392Z,24.20
2022-12-01T04:07:44.760Z,23.00
2022-12-01T04:08:44.977Z,23.70
2022-12-01T04:09:45.294Z,24.90
2022-12-01T04:10:45.632Z,22.80
2022-12-01T04:11:45.827Z,23.10
2022-12-01T04:12:46.205Z,23.40
2022-12-01T04:13:46.503Z,23.80
2022-12-01T04:14:46.854Z,23.10
2022-12-01T04:15:47.250Z,23.40
2022-12-01T04:16:47.415Z,23.40
2022-12-01T04:17:47.751Z,23.60
2022-12-01T04:18:48.051Z,23.80
2022-12-01T04:19:48.550Z,25.30
2022-12-01T04:20:48.632Z,23.40
2022-12-01T04:21:48.938Z,23.90
2022-12-01T04:22:49.193Z,23.50
2022-12-01T04:23:49.519Z,24.00
2022-12-01T04:24:49.845Z,23.60
2022-12-01T04:25:50.143Z,23.80
2022-12-01T04:26:50.512Z,24.80
2022-12-01T04:27:50.822Z,24.50
2022-12-01T04:28:51.186Z,25.30
2022-12-01T04:29:51.877Z,24.80
2022-12-01T04:30:51.781Z,23.30
2022-12-01T04:31:52.091Z,26.20
2022-12-01T04:32:52.355Z,26.10
2022-12-01T04:33:52.526Z,26.10
2022-12-01T04:34:52.886Z,25.20
2022-12-01T04:35:53.190Z,24.50
2022-12-01T04:36:53.515Z,26.50
2022-12-01T04:37:53.759Z,25.40
2022-12-01T04:38:54.133Z,25.50
2022-12-01T04:39:54.386Z,24.20
2022-12-01T04:40:54.724Z,24.70
2022-12-01T04:41:54.957Z,24.80
2022-12-01T04:42:55.327Z,26.60
2022-12-01T04:43:55.582Z,28.40
2022-12-01T04:44:55.898Z,24.80
2022-12-01T04:45:56.194Z,24.60
2022-12-01T04:46:56.663Z,24.60
2022-12-01T04:47:56.859Z,27.20
2022-12-01T04:48:57.264Z,26.80
2022-12-01T04:49:57.471Z,24.30
2022-12-01T04:50:57.769Z,25.80
2022-12-01T04:51:58.071Z,25.80
2022-12-01T04:52:58.401Z,24.30
2022-12-01T04:53:58.653Z,25.70
2022-12-01T04:54:59.376Z,25.40
2022-12-01T04:55:59.248Z,22.90
2022-12-01T04:56:59.577Z,25.40
2022-12-01T04:57:59.788Z,25.20
2022-12-01T04:59:00.111Z,23.80
2022-12-01T05:00:00.454Z,23.70
2022-12-01T05:01:00.763Z,24.80
2022-12-01T05:02:01.084Z,26.20
2022-12-01T05:03:01.269Z,26.60
2022-12-01T05:04:01.565Z,26.40
2022-12-01T05:05:01.975Z,29.30
2022-12-01T05:06:02.145Z,32.30
2022-12-01T05:07:02.460Z,23.80
2022-12-01T05:08:02.961Z,31.70
2022-12-01T05:09:03.115Z,26.00
2022-12-01T05:10:03.427Z,25.30
2022-12-01T05:11:03.772Z,25.10
2022-12-01T05:12:04.077Z,25.80
2022-12-01T05:13:04.497Z,23.80
2022-12-01T05:14:04.686Z,24.80
2022-12-01T05:15:04.956Z,24.50
2022-12-01T05:16:05.262Z,24.70
2022-12-01T05:17:05.606Z,22.20
2022-12-01T05:18:05.980Z,24.70
2022-12-01T05:19:06.128Z,25.00
2022-12-01T05:20:06.458Z,22.20
2022-12-01T05:21:06.814Z,24.40
2022-12-01T05:22:07.158Z,26.20
2022-12-01T05:23:09.001Z,24.30
2022-12-01T05:24:07.737Z,23.40
2022-12-01T05:25:08.095Z,24.20
2022-12-01T05:26:08.406Z,25.20
2022-12-01T05:27:09.135Z,25.90
2022-12-01T05:28:08.915Z,26.30
2022-12-01T05:29:09.631Z,25.10
2022-12-01T05:30:09.517Z,25.30
2022-12-01T05:31:09.794Z,24.30
2022-12-01T05:32:09.948Z,24.30
2022-12-01T05:33:10.243Z,25.50
2022-12-01T05:34:10.589Z,24.70
2022-12-01T05:35:10.874Z,24.70
2022-12-01T05:36:11.105Z,26.60
2022-12-01T05:37:11.430Z,25.70
2022-12-01T05:38:11.637Z,24.80
2022-12-01T05:39:11.918Z,25.80
2022-12-01T05:40:12.591Z,25.10
2022-12-01T05:41:12.590Z,25.40
2022-12-01T05:42:12.815Z,26.20
2022-12-01T05:43:13.180Z,24.90
2022-12-01T05:44:14.341Z,26.00
2022-12-01T05:45:14.532Z,24.80
2022-12-01T05:46:14.276Z,27.80
2022-12-01T05:47:14.415Z,24.70
2022-12-01T05:48:14.609Z,24.60
2022-12-01T05:49:14.859Z,23.10
2022-12-01T05:50:15.185Z,25.30
2022-12-01T05:51:15.545Z,24.50
2022-12-01T05:52:15.797Z,22.50
2022-12-01T05:53:15.988Z,24.10
2022-12-01T05:54:16.217Z,23.30
2022-12-01T05:55:16.553Z,26.40
2022-12-01T05:56:16.891Z,25.50
2022-12-01T05:57:17.266Z,24.80
2022-12-01T05:58:17.579Z,25.40
2022-12-01T05:59:17.916Z,24.80
2022-12-01T06:00:18.188Z,25.40
2022-12-01T06:01:18.547Z,25.70
2022-12-01T06:02:18.791Z,25.40
2022-12-01T06:03:19.068Z,25.60
2022-12-01T06:04:19.462Z,27.50
2022-12-01T06:05:19.656Z,26.10
2022-12-01T06:06:19.919Z,27.20
2022-12-01T06:07:20.341Z,27.70
2022-12-01T06:08:20.539Z,26.20
2022-12-01T06:09:20.801Z,24.90
2022-12-01T06:10:21.100Z,26.60
2022-12-01T06:11:21.403Z,24.90
2022-12-01T06:12:21.721Z,26.60
2022-12-01T06:13:22.059Z,25.90
2022-12-01T06:14:23.269Z,25.60
2022-12-01T06:15:22.641Z,25.40
2022-12-01T06:16:22.913Z,27.30
2022-12-01T06:17:23.066Z,25.70
2022-12-01T06:18:23.414Z,25.50
2022-12-01T06:19:23.760Z,30.00
2022-12-01T06:20:23.969Z,28.00
2022-12-01T06:21:24.400Z,26.10
2022-12-01T06:22:24.638Z,26.90
2022-12-01T06:23:29.987Z,29.40
2022-12-01T06:24:26.361Z,30.00
2022-12-01T06:25:25.584Z,25.80
2022-12-01T06:26:25.893Z,29.90
2022-12-01T06:27:26.125Z,31.60
2022-12-01T06:28:26.428Z,34.70
2022-12-01T06:29:26.725Z,30.00
2022-12-01T06:30:27.038Z,31.00
2022-12-01T06:31:27.331Z,26.80
2022-12-01T06:32:27.673Z,27.70
2022-12-01T06:33:28.003Z,27.50
2022-12-01T06:34:28.315Z,28.30
2022-12-01T06:35:28.605Z,28.40
2022-12-01T06:36:28.837Z,26.40
2022-12-01T06:37:29.153Z,27.20
2022-12-01T06:38:29.472Z,28.90
2022-12-01T06:39:29.805Z,28.90
2022-12-01T06:40:30.019Z,26.80
2022-12-01T06:41:30.274Z,28.50
2022-12-01T06:42:30.573Z,31.20
2022-12-01T06:43:30.939Z,27.30
2022-12-01T06:44:31.119Z,28.20
2022-12-01T06:45:31.519Z,30.60
2022-12-01T06:46:31.756Z,27.70
2022-12-01T06:47:31.971Z,26.40
2022-12-01T06:48:32.160Z,26.90
2022-12-01T06:49:32.558Z,31.20
2022-12-01T06:50:32.779Z,28.90
2022-12-01T06:51:33.047Z,28.80
2022-12-01T06:52:33.710Z,30.20
2022-12-01T06:53:33.512Z,29.20
2022-12-01T06:54:33.760Z,27.10
2022-12-01T06:55:34.999Z,26.90
2022-12-01T06:56:34.378Z,28.00
2022-12-01T06:57:34.703Z,27.90
2022-12-01T06:58:34.956Z,28.40
2022-12-01T06:59:35.756Z,27.40
2022-12-01T07:00:35.621Z,29.60
2022-12-01T07:01:35.918Z,27.90
2022-12-01T07:02:36.216Z,27.90
2022-12-01T07:03:36.455Z,29.10
2022-12-01T07:04:36.803Z,26.10
2022-12-01T07:05:37.003Z,26.50
2022-12-01T07:06:37.238Z,26.20
2022-12-01T07:07:37.622Z,26.10
2022-12-01T07:08:37.814Z,24.70
2022-12-01T07:09:38.063Z,26.00
2022-12-01T07:10:38.330Z,27.00
2022-12-01T07:11:38.563Z,26.20
2022-12-01T07:12:38.798Z,27.90
2022-12-01T07:13:39.188Z,27.00
2022-12-01T07:14:39.494Z,26.10
2022-12-01T07:15:39.724Z,26.00
2022-12-01T07:16:40.016Z,26.50
2022-12-01T07:17:40.307Z,26.20
2022-12-01T07:18:40.631Z,27.00
2022-12-01T07:19:40.815Z,25.60
2022-12-01T07:20:41.113Z,28.00
2022-12-01T07:21:41.374Z,26.60
2022-12-01T07:22:41.652Z,28.40
2022-12-01T07:23:41.891Z,26.50
2022-12-01T07:24:42.193Z,25.00
2022-12-01T07:25:42.434Z,24.20
2022-12-01T07:26:42.705Z,26.70
2022-12-01T07:27:43.035Z,23.60
2022-12-01T07:28:43.228Z,24.00
2022-12-01T07:29:43.511Z,24.10
2022-12-01T07:30:43.875Z,23.50
2022-12-01T07:31:44.029Z,25.60
2022-12-01T07:32:44.711Z,23.60
2022-12-01T07:33:44.609Z,24.90
2022-12-01T07:34:44.859Z,25.80
2022-12-01T07:35:45.126Z,24.10
2022-12-01T07:36:45.440Z,26.30
2022-12-01T07:37:45.665Z,27.40
2022-12-01T07:38:45.952Z,25.60
2022-12-01T07:39:46.429Z,23.50
2022-12-01T07:40:46.394Z,22.00
2022-12-01T07:41:46.763Z,23.60
2022-12-01T07:42:47.034Z,23.80
2022-12-01T07:43:47.311Z,22.00
2022-12-01T07:44:47.689Z,24.90
2022-12-01T07:45:48.053Z,23.10
2022-12-01T07:46:48.159Z,25.30
2022-12-01T07:47:48.437Z,27.40
2022-12-01T07:48:48.695Z,26.50
2022-12-01T07:49:49.062Z,27.20
2022-12-01T07:50:49.236Z,27.60
2022-12-01T07:51:49.489Z,26.70
2022-12-01T07:52:49.751Z,28.30
2022-12-01T07:53:50.029Z,31.50
2022-12-01T07:54:50.331Z,28.40
2022-12-01T07:55:50.617Z,30.70
2022-12-01T07:56:50.892Z,27.70
2022-12-01T07:57:51.159Z,26.60
2022-12-01T07:58:51.399Z,24.10
2022-12-01T07:59:51.858Z,23.80
2022-12-01T08:00:51.937Z,22.80
2022-12-01T08:01:52.248Z,23.40
2022-12-01T08:02:52.493Z,24.00
2022-12-01T08:03:52.739Z,25.90
2022-12-01T08:04:53.002Z,27.00
2022-12-01T08:05:53.297Z,24.40
2022-12-01T08:06:53.563Z,26.40
2022-12-01T08:07:53.889Z,25.50
2022-12-01T08:08:54.162Z,27.60
2022-12-01T08:09:54.453Z,25.80
2022-12-01T08:10:54.733Z,25.40
2022-12-01T08:11:55.023Z,23.90
2022-12-01T08:12:55.286Z,25.70
2022-12-01T08:13:55.608Z,27.10
2022-12-01T08:14:55.875Z,28.40
2022-12-01T08:15:56.250Z,22.20
2022-12-01T08:16:56.432Z,21.20
2022-12-01T08:17:56.706Z,22.70
2022-12-01T08:18:57.006Z,24.00
2022-12-01T08:19:57.247Z,25.20
2022-12-01T08:20:57.584Z,25.90
2022-12-01T08:21:57.873Z,25.30
2022-12-01T08:22:58.103Z,25.20
2022-12-01T08:23:58.418Z,25.00
2022-12-01T08:24:58.696Z,30.30
2022-12-01T08:25:59.586Z,23.70
2022-12-01T08:26:59.233Z,25.70
2022-12-01T08:27:59.510Z,26.50
2022-12-01T08:28:59.804Z,26.40
2022-12-01T08:30:00.106Z,25.10
2022-12-01T08:31:00.394Z,25.20
2022-12-01T08:32:00.657Z,24.10
2022-12-01T08:33:00.968Z,31.50
2022-12-01T08:34:01.281Z,24.20
2022-12-01T08:35:01.540Z,27.10
2022-12-01T08:36:01.868Z,26.20
2022-12-01T08:37:02.082Z,24.20
2022-12-01T08:38:02.403Z,23.10
2022-12-01T08:39:02.729Z,26.50
2022-12-01T08:40:02.934Z,23.90
2022-12-01T08:41:03.157Z,28.10
2022-12-01T08:42:03.422Z,26.60
2022-12-01T08:43:03.747Z,24.40
2022-12-01T08:44:04.069Z,24.60
2022-12-01T08:45:04.322Z,27.00
2022-12-01T08:46:04.623Z,31.20
2022-12-01T08:47:04.841Z,31.50
2022-12-01T08:48:05.138Z,29.30
2022-12-01T08:49:05.434Z,29.80
2022-12-01T08:50:05.757Z,28.60
2022-12-01T08:51:05.985Z,23.20
2022-12-01T08:52:06.394Z,25.80
2022-12-01T08:53:06.540Z,25.00
2022-12-01T08:54:06.840Z,26.10
2022-12-01T08:55:07.314Z,23.10
2022-12-01T08:56:07.411Z,26.90
2022-12-01T08:57:07.720Z,29.00
2022-12-01T08:58:08.005Z,28.70
2022-12-01T08:59:08.272Z,29.80
2022-12-01T09:00:08.555Z,29.00
2022-12-01T09:01:08.812Z,31.30
2022-12-01T09:02:09.139Z,27.80
2022-12-01T09:03:09.458Z,31.90
2022-12-01T09:04:09.691Z,28.30
2022-12-01T09:05:09.962Z,28.00
2022-12-01T09:06:10.275Z,29.70
2022-12-01T09:07:10.504Z,31.40
2022-12-01T09:08:10.794Z,31.10
2022-12-01T09:09:11.160Z,34.20
2022-12-01T09:10:11.437Z,31.30
2022-12-01T09:11:11.646Z,31.20
2022-12-01T09:12:12.015Z,29.40
2022-12-01T09:13:12.284Z,31.80
2022-12-01T09:14:12.547Z,31.30
2022-12-01T09:15:12.803Z,31.50
2022-12-01T09:16:13.193Z,26.70
2022-12-01T09:17:13.489Z,30.50
2022-12-01T09:18:13.747Z,28.40
2022-12-01T09:19:15.168Z,27.80
2022-12-01T09:20:14.347Z,26.00
2022-12-01T09:21:14.618Z,26.50
2022-12-01T09:22:14.908Z,27.00
2022-12-01T09:23:15.119Z,29.00
2022-12-01T09:24:15.416Z,27.20
2022-12-01T09:25:15.774Z,29.70
2022-12-01T09:26:16.002Z,27.60
2022-12-01T09:27:16.340Z,27.60
2022-12-01T09:28:16.556Z,26.00
2022-12-01T09:29:16.795Z,25.30
2022-12-01T09:30:17.142Z,24.90
2022-12-01T09:31:17.380Z,23.20
2022-12-01T09:32:17.681Z,26.90
2022-12-01T09:33:17.914Z,26.40
2022-12-01T09:34:18.174Z,26.00
2022-12-01T09:35:23.052Z,24.80
2022-12-01T09:36:19.800Z,24.30
2022-12-01T09:37:19.148Z,25.90
2022-12-01T09:38:19.450Z,30.30
2022-12-01T09:39:19.692Z,27.00
2022-12-01T09:40:20.024Z,25.60
2022-12-01T09:41:20.251Z,24.90
2022-12-01T09:42:20.541Z,24.40
2022-12-01T09:43:20.905Z,27.00
2022-12-01T09:44:21.181Z,25.00
2022-12-01T09:45:21.451Z,25.50
2022-12-01T09:46:21.847Z,23.20
2022-12-01T09:47:21.975Z,25.10
2022-12-01T09:48:22.275Z,24.20
2022-12-01T09:49:22.542Z,23.00
2022-12-01T09:50:22.818Z,23.60
2022-12-01T09:51:23.097Z,24.60
2022-12-01T09:52:23.401Z,24.70
2022-12-01T09:53:23.610Z,23.80
2022-12-01T09:54:24.035Z,24.20
2022-12-01T09:55:24.155Z,25.10
2022-12-01T09:56:24.464Z,25.30
2022-12-01T09:57:24.788Z,22.80
2022-12-01T09:58:25.015Z,22.70
2022-12-01T09:59:25.367Z,22.20
2022-12-01T10:00:25.604Z,22.10
2022-12-01T10:01:27.421Z,22.70
2022-12-01T10:02:26.256Z,21.10
2022-12-01T10:03:26.488Z,25.20
2022-12-01T10:04:26.758Z,23.00
2022-12-01T10:05:27.093Z,23.80
2022-12-01T10:06:28.710Z,22.10
2022-12-01T10:07:27.636Z,22.10
2022-12-01T10:08:27.937Z,27.70
2022-12-01T10:09:28.179Z,21.30
2022-12-01T10:10:28.556Z,23.70
2022-12-01T10:11:28.722Z,23.60
2022-12-01T10:12:28.993Z,23.30
2022-12-01T10:13:29.206Z,23.90
2022-12-01T10:14:30.427Z,22.30
2022-12-01T10:15:29.878Z,23.50
2022-12-01T10:16:30.209Z,21.60
2022-12-01T10:17:30.375Z,21.80
2022-12-01T10:18:31.137Z,22.90
2022-12-01T10:19:30.976Z,27.70
2022-12-01T10:20:31.678Z,23.60
2022-12-01T10:21:31.529Z,21.60
2022-12-01T10:22:31.965Z,21.00
2022-12-01T10:23:32.022Z,23.50
2022-12-01T10:24:32.283Z,22.30
2022-12-01T10:25:32.607Z,23.40
2022-12-01T10:26:32.884Z,24.20
2022-12-01T10:27:33.126Z,23.00
2022-12-01T10:28:33.427Z,23.00
2022-12-01T10:29:33.758Z,21.90
2022-12-01T10:30:33.985Z,22.70
2022-12-01T10:31:34.299Z,23.70
2022-12-01T10:32:34.544Z,24.30
2022-12-01T10:33:34.829Z,22.70
2022-12-01T10:34:35.138Z,25.20
2022-12-01T10:35:35.353Z,25.50
2022-12-01T10:36:35.617Z,21.60
2022-12-01T10:37:35.983Z,22.20
2022-12-01T10:38:36.241Z,20.70
2022-12-01T10:39:36.453Z,23.20
2022-12-01T10:40:36.719Z,22.50
2022-12-01T10:41:36.973Z,24.70
2022-12-01T10:42:37.294Z,23.60
2022-12-01T10:43:37.529Z,24.50
2022-12-01T10:44:38.359Z,23.00
2022-12-01T10:45:38.291Z,24.40
2022-12-01T10:46:38.389Z,24.40
2022-12-01T10:47:38.676Z,22.50
2022-12-01T10:48:38.939Z,23.70
2022-12-01T10:49:39.202Z,23.00
2022-12-01T10:50:39.489Z,27.70
2022-12-01T10:51:39.777Z,26.50
2022-12-01T10:52:40.043Z,24.80
2022-12-01T10:53:40.355Z,22.30
2022-12-01T10:54:40.624Z,21.70
2022-12-01T10:55:44.873Z,22.50
2022-12-01T10:56:42.148Z,22.80
2022-12-01T10:57:41.444Z,22.50
2022-12-01T10:58:41.694Z,22.30
2022-12-01T10:59:41.973Z,25.00
2022-12-01T11:00:58.525Z,25.00
2022-12-01T11:01:43.592Z,22.50
2022-12-01T11:02:42.945Z,21.00
2022-12-01T11:03:43.209Z,20.90
2022-12-01T11:04:43.369Z,21.90
2022-12-01T11:05:43.629Z,27.00
2022-12-01T11:06:43.938Z,21.80
2022-12-01T11:07:44.244Z,22.40
2022-12-01T11:08:44.469Z,21.90
2022-12-01T11:09:44.737Z,22.40
2022-12-01T11:10:44.999Z,19.50
2022-12-01T11:11:45.316Z,20.90
2022-12-01T11:12:45.602Z,25.80
2022-12-01T11:13:45.849Z,22.20
2022-12-01T11:14:46.127Z,23.20
2022-12-01T11:15:46.426Z,23.70
2022-12-01T11:16:46.787Z,25.10
2022-12-01T11:17:46.936Z,25.90
2022-12-01T11:18:47.307Z,22.80
2022-12-01T11:19:47.969Z,22.00
2022-12-01T11:20:47.844Z,22.20
2022-12-01T11:21:48.049Z,23.90
2022-12-01T11:22:48.363Z,21.40
2022-12-01T11:23:48.572Z,21.60
2022-12-01T11:24:48.854Z,23.40
2022-12-01T11:25:49.111Z,22.00
2022-12-01T11:26:49.405Z,23.80
2022-12-01T11:27:49.728Z,23.40
2022-12-01T11:28:49.957Z,22.10
2022-12-01T11:29:50.479Z,21.50
2022-12-01T11:30:55.295Z,23.00
2022-12-01T11:31:51.910Z,22.10
2022-12-01T11:32:51.245Z,23.90
2022-12-01T11:33:51.310Z,23.00
2022-12-01T11:34:51.780Z,24.70
2022-12-01T11:35:51.867Z,23.80
2022-12-01T11:36:52.268Z,22.60
2022-12-01T11:38:27.229Z,24.50
2022-12-01T11:38:53.779Z,23.90
2022-12-01T11:39:53.177Z,27.80
2022-12-01T11:40:53.358Z,25.00
2022-12-01T11:41:53.584Z,23.40
2022-12-01T11:42:53.826Z,25.30
2022-12-01T11:44:01.528Z,26.90
2022-12-01T11:44:55.376Z,23.90
2022-12-01T11:45:55.126Z,25.20
2022-12-01T11:47:07.774Z,24.10
2022-12-01T11:47:56.622Z,24.70
2022-12-01T11:48:55.550Z,25.80
2022-12-01T11:49:55.795Z,23.50
2022-12-01T11:50:56.080Z,21.50
2022-12-01T11:51:56.298Z,24.10
2022-12-01T11:52:56.617Z,23.30
2022-12-01T11:53:56.821Z,25.00
2022-12-01T11:54:57.078Z,24.00
2022-12-01T11:55:58.618Z,26.20
2022-12-01T11:57:31.695Z,24.80
2022-12-01T11:57:58.873Z,26.10
2022-12-01T11:58:58.181Z,24.00
2022-12-01T11:59:58.461Z,24.80
2022-12-01T12:00:58.736Z,27.10
2022-12-01T12:01:59.094Z,23.80
2022-12-01T12:03:00.512Z,22.40
2022-12-01T12:03:59.652Z,27.60
2022-12-01T12:04:59.943Z,24.90
2022-12-01T12:06:17.759Z,21.20
2022-12-01T12:07:01.496Z,22.70
2022-12-01T12:08:00.899Z,23.70
2022-12-01T12:09:01.315Z,25.70
2022-12-01T12:10:01.365Z,28.70
2022-12-01T12:11:01.725Z,24.00
2022-12-01T12:12:01.936Z,23.40
2022-12-01T12:13:02.514Z,24.80
2022-12-01T12:14:02.578Z,22.40
2022-12-01T12:15:02.756Z,23.90
2022-12-01T12:16:03.057Z,23.80
2022-12-01T12:17:03.334Z,22.80
2022-12-01T12:18:03.708Z,24.60
2022-12-01T12:19:03.882Z,23.40
2022-12-01T12:20:09.002Z,23.30
2022-12-01T12:21:05.408Z,26.10
2022-12-01T12:22:04.687Z,23.00
2022-12-01T12:23:04.977Z,24.20
2022-12-01T12:24:05.194Z,21.60
2022-12-01T12:25:05.469Z,22.80
2022-12-01T12:26:05.789Z,24.20
2022-12-01T12:27:06.020Z,23.80
2022-12-01T12:28:06.332Z,23.60
2022-12-01T12:29:12.248Z,22.60
2022-12-01T12:30:07.832Z,21.90
2022-12-01T12:31:07.166Z,24.20
2022-12-01T12:32:07.358Z,22.70
2022-12-01T12:33:07.745Z,23.30
2022-12-01T12:34:07.956Z,24.10
2022-12-01T12:35:08.238Z,21.70
2022-12-01T12:36:08.493Z,23.50
2022-12-01T12:37:08.799Z,23.80
2022-12-01T12:38:09.085Z,22.30
2022-12-01T12:39:13.560Z,26.40
2022-12-01T12:40:10.589Z,24.40
2022-12-01T12:41:09.873Z,23.00
2022-12-01T12:42:10.138Z,24.10
2022-12-01T12:43:10.476Z,22.90
2022-12-01T12:44:10.691Z,21.50
2022-12-01T12:45:10.961Z,22.70
2022-12-01T12:46:11.376Z,25.70
2022-12-01T12:47:11.539Z,26.60
2022-12-01T12:48:11.845Z,23.50
2022-12-01T12:49:19.770Z,24.90
2022-12-01T12:50:13.386Z,26.30
2022-12-01T12:51:12.594Z,22.90
2022-12-01T12:52:12.935Z,24.60
2022-12-01T12:53:13.210Z,24.70
2022-12-01T12:54:13.681Z,23.70
2022-12-01T12:55:14.372Z,24.20
2022-12-01T12:56:14.034Z,23.90